sensor_id;sensor_type;location;lat;lon;timestamp;temperature;humidity
14733;DHT22;7457;50.960;6.830;2023-06-14T00:00:39;16.30;55.60
14733;DHT22;7457;50.960;6.830;2023-06-14T00:03:07;16.30;55.80
14733;DHT22;7457;50.960;6.830;2023-06-14T00:05:35;16.20;56.10
14733;DHT22;7457;50.960;6.830;2023-06-14T00:08:06;16.20;56.30
14733;DHT22;7457;50.960;6.830;2023-06-14T00:10:38;16.10;56.50
14733;DHT22;7457;50.960;6.830;2023-06-14T00:13:07;16.10;56.80
14733;DHT22;7457;50.960;6.830;2023-06-14T00:15:33;16.10;56.70
14733;DHT22;7457;50.960;6.830;2023-06-14T00:17:59;16.10;56.80
14733;DHT22;7457;50.960;6.830;2023-06-14T00:20:27;16.10;57.00
14733;DHT22;7457;50.960;6.830;2023-06-14T00:22:53;16.10;57.20
14733;DHT22;7457;50.960;6.830;2023-06-14T00:25:22;16.10;58.00
14733;DHT22;7457;50.960;6.830;2023-06-14T00:27:47;15.90;58.20
14733;DHT22;7457;50.960;6.830;2023-06-14T00:30:13;15.80;58.40
14733;DHT22;7457;50.960;6.830;2023-06-14T00:32:39;15.60;58.80
14733;DHT22;7457;50.960;6.830;2023-06-14T00:35:05;15.50;59.30
14733;DHT22;7457;50.960;6.830;2023-06-14T00:37:31;15.40;59.80
14733;DHT22;7457;50.960;6.830;2023-06-14T00:39:56;15.30;60.30
14733;DHT22;7457;50.960;6.830;2023-06-14T00:42:26;15.20;60.60
14733;DHT22;7457;50.960;6.830;2023-06-14T00:44:52;15.10;61.10
14733;DHT22;7457;50.960;6.830;2023-06-14T00:47:18;15.00;61.30
14733;DHT22;7457;50.960;6.830;2023-06-14T00:49:46;15.00;61.70
14733;DHT22;7457;50.960;6.830;2023-06-14T00:52:13;15.00;62.20
14733;DHT22;7457;50.960;6.830;2023-06-14T00:54:43;14.90;62.00
14733;DHT22;7457;50.960;6.830;2023-06-14T00:57:12;14.90;62.40
14733;DHT22;7457;50.960;6.830;2023-06-14T00:59:43;14.80;62.40
14733;DHT22;7457;50.960;6.830;2023-06-14T01:02:10;14.80;62.60
14733;DHT22;7457;50.960;6.830;2023-06-14T01:04:35;14.80;62.70
14733;DHT22;7457;50.960;6.830;2023-06-14T01:12:38;15.00;62.70
14733;DHT22;7457;50.960;6.830;2023-06-14T01:15:02;15.00;62.50
14733;DHT22;7457;50.960;6.830;2023-06-14T01:17:29;14.90;62.40
14733;DHT22;7457;50.960;6.830;2023-06-14T01:19:59;14.90;62.60
14733;DHT22;7457;50.960;6.830;2023-06-14T01:22:26;14.80;62.90
14733;DHT22;7457;50.960;6.830;2023-06-14T01:24:53;14.80;63.10
14733;DHT22;7457;50.960;6.830;2023-06-14T01:27:22;14.80;63.30
14733;DHT22;7457;50.960;6.830;2023-06-14T01:29:51;14.70;63.60
14733;DHT22;7457;50.960;6.830;2023-06-14T01:32:18;14.60;63.70
14733;DHT22;7457;50.960;6.830;2023-06-14T01:34:44;14.60;64.00
14733;DHT22;7457;50.960;6.830;2023-06-14T01:37:11;14.40;64.20
14733;DHT22;7457;50.960;6.830;2023-06-14T01:39:38;14.20;64.80
14733;DHT22;7457;50.960;6.830;2023-06-14T01:42:05;14.10;65.10
14733;DHT22;7457;50.960;6.830;2023-06-14T01:44:32;14.00;65.70
14733;DHT22;7457;50.960;6.830;2023-06-14T01:46:58;13.90;65.80
14733;DHT22;7457;50.960;6.830;2023-06-14T01:49:24;13.90;66.10
14733;DHT22;7457;50.960;6.830;2023-06-14T01:51:51;13.80;66.30
14733;DHT22;7457;50.960;6.830;2023-06-14T01:54:16;13.80;66.40
14733;DHT22;7457;50.960;6.830;2023-06-14T01:56:42;13.80;66.40
14733;DHT22;7457;50.960;6.830;2023-06-14T01:59:07;13.80;66.50
14733;DHT22;7457;50.960;6.830;2023-06-14T02:01:33;13.70;66.50
14733;DHT22;7457;50.960;6.830;2023-06-14T02:03:59;13.70;66.80
14733;DHT22;7457;50.960;6.830;2023-06-14T02:06:26;13.60;67.00
14733;DHT22;7457;50.960;6.830;2023-06-14T02:08:52;13.60;67.30
14733;DHT22;7457;50.960;6.830;2023-06-14T02:11:18;13.50;67.40
14733;DHT22;7457;50.960;6.830;2023-06-14T02:13:44;13.50;67.60
14733;DHT22;7457;50.960;6.830;2023-06-14T02:16:10;13.50;67.80
14733;DHT22;7457;50.960;6.830;2023-06-14T02:18:36;13.50;67.90
14733;DHT22;7457;50.960;6.830;2023-06-14T02:21:01;13.50;68.00
14733;DHT22;7457;50.960;6.830;2023-06-14T02:23:27;13.60;68.00
14733;DHT22;7457;50.960;6.830;2023-06-14T02:25:53;13.60;68.10
14733;DHT22;7457;50.960;6.830;2023-06-14T02:28:18;13.70;68.00
14733;DHT22;7457;50.960;6.830;2023-06-14T02:30:44;13.70;68.00
14733;DHT22;7457;50.960;6.830;2023-06-14T02:33:09;13.80;67.90
14733;DHT22;7457;50.960;6.830;2023-06-14T02:35:38;13.80;67.90
14733;DHT22;7457;50.960;6.830;2023-06-14T02:38:04;14.00;67.70
14733;DHT22;7457;50.960;6.830;2023-06-14T02:40:29;14.10;67.60
14733;DHT22;7457;50.960;6.830;2023-06-14T02:42:55;14.10;67.30
14733;DHT22;7457;50.960;6.830;2023-06-14T02:45:21;14.20;67.00
14733;DHT22;7457;50.960;6.830;2023-06-14T02:47:46;14.20;66.70
14733;DHT22;7457;50.960;6.830;2023-06-14T02:50:12;14.10;66.70
14733;DHT22;7457;50.960;6.830;2023-06-14T02:52:37;13.90;67.20
14733;DHT22;7457;50.960;6.830;2023-06-14T02:55:03;13.70;67.60
14733;DHT22;7457;50.960;6.830;2023-06-14T02:57:30;13.60;68.00
14733;DHT22;7457;50.960;6.830;2023-06-14T02:59:55;13.50;68.40
14733;DHT22;7457;50.960;6.830;2023-06-14T03:02:21;13.40;68.70
14733;DHT22;7457;50.960;6.830;2023-06-14T03:04:47;13.30;69.00
14733;DHT22;7457;50.960;6.830;2023-06-14T03:07:12;13.20;69.30
14733;DHT22;7457;50.960;6.830;2023-06-14T03:09:39;13.20;69.40
14733;DHT22;7457;50.960;6.830;2023-06-14T03:12:05;13.10;69.60
14733;DHT22;7457;50.960;6.830;2023-06-14T03:14:35;13.10;69.80
14733;DHT22;7457;50.960;6.830;2023-06-14T03:17:02;13.10;70.00
14733;DHT22;7457;50.960;6.830;2023-06-14T03:19:27;13.10;70.10
14733;DHT22;7457;50.960;6.830;2023-06-14T03:21:53;13.10;70.20
14733;DHT22;7457;50.960;6.830;2023-06-14T03:24:23;13.00;70.40
14733;DHT22;7457;50.960;6.830;2023-06-14T03:26:49;13.00;70.40
14733;DHT22;7457;50.960;6.830;2023-06-14T03:29:14;13.00;70.50
14733;DHT22;7457;50.960;6.830;2023-06-14T03:31:55;13.00;70.70
14733;DHT22;7457;50.960;6.830;2023-06-14T03:34:21;13.00;71.00
14733;DHT22;7457;50.960;6.830;2023-06-14T03:36:47;12.90;71.00
14733;DHT22;7457;50.960;6.830;2023-06-14T03:39:12;12.90;71.20
14733;DHT22;7457;50.960;6.830;2023-06-14T03:41:38;13.00;71.30
14733;DHT22;7457;50.960;6.830;2023-06-14T03:44:03;13.00;71.40
14733;DHT22;7457;50.960;6.830;2023-06-14T03:46:29;13.00;71.50
14733;DHT22;7457;50.960;6.830;2023-06-14T03:48:55;13.00;71.70
14733;DHT22;7457;50.960;6.830;2023-06-14T03:51:21;13.00;71.80
14733;DHT22;7457;50.960;6.830;2023-06-14T03:53:48;13.00;72.00
14733;DHT22;7457;50.960;6.830;2023-06-14T03:56:13;13.10;72.20
14733;DHT22;7457;50.960;6.830;2023-06-14T03:58:39;13.20;72.30
14733;DHT22;7457;50.960;6.830;2023-06-14T04:01:04;13.20;72.40
14733;DHT22;7457;50.960;6.830;2023-06-14T04:03:32;13.30;72.30
14733;DHT22;7457;50.960;6.830;2023-06-14T04:05:58;13.40;72.40
14733;DHT22;7457;50.960;6.830;2023-06-14T04:08:25;13.50;72.20
14733;DHT22;7457;50.960;6.830;2023-06-14T04:10:51;13.50;72.10
14733;DHT22;7457;50.960;6.830;2023-06-14T04:13:16;13.60;71.90
14733;DHT22;7457;50.960;6.830;2023-06-14T04:15:42;13.60;71.80
14733;DHT22;7457;50.960;6.830;2023-06-14T04:18:09;13.60;71.80
14733;DHT22;7457;50.960;6.830;2023-06-14T04:20:35;13.60;71.90
14733;DHT22;7457;50.960;6.830;2023-06-14T04:25:38;13.60;72.20
14733;DHT22;7457;50.960;6.830;2023-06-14T04:28:05;13.70;72.20
14733;DHT22;7457;50.960;6.830;2023-06-14T04:30:34;13.70;72.40
14733;DHT22;7457;50.960;6.830;2023-06-14T04:33:00;13.70;72.70
14733;DHT22;7457;50.960;6.830;2023-06-14T04:35:26;13.80;73.50
14733;DHT22;7457;50.960;6.830;2023-06-14T04:37:54;14.00;73.00
14733;DHT22;7457;50.960;6.830;2023-06-14T04:40:20;14.20;73.00
14733;DHT22;7457;50.960;6.830;2023-06-14T04:42:46;14.30;73.30
14733;DHT22;7457;50.960;6.830;2023-06-14T04:45:12;14.60;73.70
14733;DHT22;7457;50.960;6.830;2023-06-14T04:47:38;15.00;74.30
14733;DHT22;7457;50.960;6.830;2023-06-14T04:50:04;15.70;73.60
14733;DHT22;7457;50.960;6.830;2023-06-14T04:52:30;16.50;72.40
14733;DHT22;7457;50.960;6.830;2023-06-14T04:54:56;17.20;70.30
14733;DHT22;7457;50.960;6.830;2023-06-14T04:57:22;17.60;68.60
14733;DHT22;7457;50.960;6.830;2023-06-14T04:59:48;17.80;67.90
14733;DHT22;7457;50.960;6.830;2023-06-14T05:02:14;17.90;67.30
14733;DHT22;7457;50.960;6.830;2023-06-14T05:04:40;18.00;67.30
14733;DHT22;7457;50.960;6.830;2023-06-14T05:07:08;18.10;67.20
14733;DHT22;7457;50.960;6.830;2023-06-14T05:09:35;18.30;67.10
14733;DHT22;7457;50.960;6.830;2023-06-14T05:12:01;18.30;67.00
14733;DHT22;7457;50.960;6.830;2023-06-14T05:14:27;18.30;67.30
14733;DHT22;7457;50.960;6.830;2023-06-14T05:16:52;18.40;67.80
14733;DHT22;7457;50.960;6.830;2023-06-14T05:19:19;18.90;67.80
14733;DHT22;7457;50.960;6.830;2023-06-14T05:21:46;19.70;66.70
14733;DHT22;7457;50.960;6.830;2023-06-14T05:24:15;20.40;64.80
14733;DHT22;7457;50.960;6.830;2023-06-14T05:26:43;20.90;62.70
14733;DHT22;7457;50.960;6.830;2023-06-14T05:29:08;21.30;60.60
14733;DHT22;7457;50.960;6.830;2023-06-14T05:31:34;21.30;59.10
14733;DHT22;7457;50.960;6.830;2023-06-14T05:34:00;21.10;58.90
14733;DHT22;7457;50.960;6.830;2023-06-14T05:36:25;20.90;58.80
14733;DHT22;7457;50.960;6.830;2023-06-14T05:38:53;20.70;58.50
14733;DHT22;7457;50.960;6.830;2023-06-14T05:41:24;20.50;58.30
14733;DHT22;7457;50.960;6.830;2023-06-14T05:43:50;20.30;58.10
14733;DHT22;7457;50.960;6.830;2023-06-14T05:46:16;20.30;57.70
14733;DHT22;7457;50.960;6.830;2023-06-14T05:48:50;20.30;57.30
14733;DHT22;7457;50.960;6.830;2023-06-14T05:51:16;20.30;56.70
14733;DHT22;7457;50.960;6.830;2023-06-14T05:53:48;20.30;56.20
14733;DHT22;7457;50.960;6.830;2023-06-14T05:56:14;20.30;55.60
14733;DHT22;7457;50.960;6.830;2023-06-14T05:58:40;20.30;55.70
14733;DHT22;7457;50.960;6.830;2023-06-14T06:01:06;20.30;55.50
14733;DHT22;7457;50.960;6.830;2023-06-14T06:03:32;20.30;53.40
14733;DHT22;7457;50.960;6.830;2023-06-14T06:05:58;20.40;53.00
14733;DHT22;7457;50.960;6.830;2023-06-14T06:08:24;20.40;52.10
14733;DHT22;7457;50.960;6.830;2023-06-14T06:10:50;20.40;51.60
14733;DHT22;7457;50.960;6.830;2023-06-14T06:13:16;20.50;51.20
14733;DHT22;7457;50.960;6.830;2023-06-14T06:15:41;20.60;51.10
14733;DHT22;7457;50.960;6.830;2023-06-14T06:18:07;20.70;50.40
14733;DHT22;7457;50.960;6.830;2023-06-14T06:20:33;20.70;50.10
14733;DHT22;7457;50.960;6.830;2023-06-14T06:22:59;20.70;50.40
14733;DHT22;7457;50.960;6.830;2023-06-14T06:25:27;20.60;49.80
14733;DHT22;7457;50.960;6.830;2023-06-14T06:27:54;20.60;49.90
14733;DHT22;7457;50.960;6.830;2023-06-14T06:30:20;20.70;49.90
14733;DHT22;7457;50.960;6.830;2023-06-14T06:32:46;20.70;49.70
14733;DHT22;7457;50.960;6.830;2023-06-14T06:35:12;20.70;49.40
14733;DHT22;7457;50.960;6.830;2023-06-14T06:37:38;20.80;49.50
14733;DHT22;7457;50.960;6.830;2023-06-14T06:40:04;20.80;49.20
14733;DHT22;7457;50.960;6.830;2023-06-14T06:42:31;20.90;49.40
14733;DHT22;7457;50.960;6.830;2023-06-14T06:44:57;21.00;49.50
14733;DHT22;7457;50.960;6.830;2023-06-14T06:47:23;21.10;49.30
14733;DHT22;7457;50.960;6.830;2023-06-14T06:49:49;21.40;48.80
14733;DHT22;7457;50.960;6.830;2023-06-14T06:52:14;21.80;48.00
14733;DHT22;7457;50.960;6.830;2023-06-14T06:54:40;21.90;47.20
14733;DHT22;7457;50.960;6.830;2023-06-14T06:57:06;21.90;47.60
14733;DHT22;7457;50.960;6.830;2023-06-14T06:59:32;22.00;47.30
14733;DHT22;7457;50.960;6.830;2023-06-14T07:01:58;22.10;47.20
14733;DHT22;7457;50.960;6.830;2023-06-14T07:04:23;22.10;46.90
14733;DHT22;7457;50.960;6.830;2023-06-14T07:06:49;22.10;46.80
14733;DHT22;7457;50.960;6.830;2023-06-14T07:09:15;22.10;46.60
14733;DHT22;7457;50.960;6.830;2023-06-14T07:11:42;22.10;46.50
14733;DHT22;7457;50.960;6.830;2023-06-14T07:14:08;22.10;46.50
14733;DHT22;7457;50.960;6.830;2023-06-14T07:16:34;22.20;46.70
14733;DHT22;7457;50.960;6.830;2023-06-14T07:18:59;22.40;46.60
14733;DHT22;7457;50.960;6.830;2023-06-14T07:21:26;22.60;46.10
14733;DHT22;7457;50.960;6.830;2023-06-14T07:23:52;22.80;45.60
14733;DHT22;7457;50.960;6.830;2023-06-14T07:26:18;23.00;45.50
14733;DHT22;7457;50.960;6.830;2023-06-14T07:28:44;23.30;45.00
14733;DHT22;7457;50.960;6.830;2023-06-14T07:31:13;23.50;44.40
14733;DHT22;7457;50.960;6.830;2023-06-14T07:33:40;23.70;44.50
14733;DHT22;7457;50.960;6.830;2023-06-14T07:36:06;23.90;44.10
14733;DHT22;7457;50.960;6.830;2023-06-14T07:38:31;23.90;43.70
14733;DHT22;7457;50.960;6.830;2023-06-14T07:40:57;23.80;43.70
14733;DHT22;7457;50.960;6.830;2023-06-14T07:43:23;23.60;43.30
14733;DHT22;7457;50.960;6.830;2023-06-14T07:45:48;23.30;43.20
14733;DHT22;7457;50.960;6.830;2023-06-14T07:48:14;23.10;43.50
14733;DHT22;7457;50.960;6.830;2023-06-14T07:50:40;23.00;43.80
14733;DHT22;7457;50.960;6.830;2023-06-14T07:53:06;22.90;44.10
14733;DHT22;7457;50.960;6.830;2023-06-14T07:55:32;22.90;44.10
14733;DHT22;7457;50.960;6.830;2023-06-14T07:57:58;22.80;44.20
14733;DHT22;7457;50.960;6.830;2023-06-14T08:00:24;22.90;44.60
14733;DHT22;7457;50.960;6.830;2023-06-14T08:02:50;23.00;44.70
14733;DHT22;7457;50.960;6.830;2023-06-14T08:05:17;23.20;44.10
14733;DHT22;7457;50.960;6.830;2023-06-14T08:07:43;23.40;43.30
14733;DHT22;7457;50.960;6.830;2023-06-14T08:10:09;23.50;43.10
14733;DHT22;7457;50.960;6.830;2023-06-14T08:12:34;23.60;42.50
14733;DHT22;7457;50.960;6.830;2023-06-14T08:15:00;23.80;41.90
14733;DHT22;7457;50.960;6.830;2023-06-14T08:17:26;23.90;41.70
14733;DHT22;7457;50.960;6.830;2023-06-14T08:19:52;23.90;41.50
14733;DHT22;7457;50.960;6.830;2023-06-14T08:22:22;23.80;41.50
14733;DHT22;7457;50.960;6.830;2023-06-14T08:24:50;23.70;41.00
14733;DHT22;7457;50.960;6.830;2023-06-14T08:27:15;23.90;40.70
14733;DHT22;7457;50.960;6.830;2023-06-14T08:29:41;23.90;40.90
14733;DHT22;7457;50.960;6.830;2023-06-14T08:32:07;24.00;39.70
14733;DHT22;7457;50.960;6.830;2023-06-14T08:34:33;24.10;39.20
14733;DHT22;7457;50.960;6.830;2023-06-14T08:36:59;24.20;39.30
14733;DHT22;7457;50.960;6.830;2023-06-14T08:39:24;24.30;39.20
14733;DHT22;7457;50.960;6.830;2023-06-14T08:41:50;24.40;39.00
14733;DHT22;7457;50.960;6.830;2023-06-14T08:44:17;24.50;38.50
14733;DHT22;7457;50.960;6.830;2023-06-14T08:46:43;24.70;38.20
14733;DHT22;7457;50.960;6.830;2023-06-14T08:49:12;24.90;37.90
14733;DHT22;7457;50.960;6.830;2023-06-14T08:51:38;25.10;38.20
14733;DHT22;7457;50.960;6.830;2023-06-14T08:54:06;25.20;37.60
14733;DHT22;7457;50.960;6.830;2023-06-14T08:56:32;25.40;37.60
14733;DHT22;7457;50.960;6.830;2023-06-14T08:59:00;25.70;37.50
14733;DHT22;7457;50.960;6.830;2023-06-14T09:01:34;26.00;37.30
14733;DHT22;7457;50.960;6.830;2023-06-14T09:04:00;26.60;36.70
14733;DHT22;7457;50.960;6.830;2023-06-14T09:06:25;27.20;35.60
14733;DHT22;7457;50.960;6.830;2023-06-14T09:08:54;27.70;35.60
14733;DHT22;7457;50.960;6.830;2023-06-14T09:11:22;28.20;35.00
14733;DHT22;7457;50.960;6.830;2023-06-14T09:13:49;28.70;34.70
14733;DHT22;7457;50.960;6.830;2023-06-14T09:16:15;29.00;34.20
14733;DHT22;7457;50.960;6.830;2023-06-14T09:18:46;29.20;34.10
14733;DHT22;7457;50.960;6.830;2023-06-14T09:21:14;29.50;34.00
14733;DHT22;7457;50.960;6.830;2023-06-14T09:23:45;30.00;33.80
14733;DHT22;7457;50.960;6.830;2023-06-14T09:26:18;30.30;33.40
14733;DHT22;7457;50.960;6.830;2023-06-14T09:28:49;30.50;33.20
14733;DHT22;7457;50.960;6.830;2023-06-14T09:31:17;30.50;33.10
14733;DHT22;7457;50.960;6.830;2023-06-14T09:33:44;30.40;32.90
14733;DHT22;7457;50.960;6.830;2023-06-14T09:38:54;30.70;32.90
14733;DHT22;7457;50.960;6.830;2023-06-14T09:41:20;30.80;32.60
14733;DHT22;7457;50.960;6.830;2023-06-14T09:43:47;30.90;33.20
14733;DHT22;7457;50.960;6.830;2023-06-14T09:46:13;31.10;32.80
14733;DHT22;7457;50.960;6.830;2023-06-14T09:48:39;31.20;32.60
14733;DHT22;7457;50.960;6.830;2023-06-14T09:51:10;31.10;32.70
14733;DHT22;7457;50.960;6.830;2023-06-14T09:53:36;31.10;32.90
14733;DHT22;7457;50.960;6.830;2023-06-14T09:56:04;31.20;32.70
14733;DHT22;7457;50.960;6.830;2023-06-14T09:58:31;31.30;32.40
14733;DHT22;7457;50.960;6.830;2023-06-14T10:00:59;31.40;32.40
14733;DHT22;7457;50.960;6.830;2023-06-14T10:03:28;31.50;32.50
14733;DHT22;7457;50.960;6.830;2023-06-14T10:05:55;31.50;32.50
14733;DHT22;7457;50.960;6.830;2023-06-14T10:08:28;31.70;32.90
14733;DHT22;7457;50.960;6.830;2023-06-14T10:10:56;31.80;32.50
14733;DHT22;7457;50.960;6.830;2023-06-14T10:13:22;32.00;32.50
14733;DHT22;7457;50.960;6.830;2023-06-14T10:18:43;31.90;32.50
14733;DHT22;7457;50.960;6.830;2023-06-14T10:23:50;31.60;32.60
14733;DHT22;7457;50.960;6.830;2023-06-14T10:26:23;31.30;33.10
14733;DHT22;7457;50.960;6.830;2023-06-14T10:29:17;31.20;33.20
14733;DHT22;7457;50.960;6.830;2023-06-14T10:34:10;30.70;34.00
14733;DHT22;7457;50.960;6.830;2023-06-14T10:36:36;30.50;34.30
14733;DHT22;7457;50.960;6.830;2023-06-14T10:39:06;30.50;34.60
14733;DHT22;7457;50.960;6.830;2023-06-14T10:41:39;30.70;34.50
14733;DHT22;7457;50.960;6.830;2023-06-14T10:46:49;30.90;35.00
14733;DHT22;7457;50.960;6.830;2023-06-14T10:49:36;31.10;34.80
14733;DHT22;7457;50.960;6.830;2023-06-14T10:52:04;31.20;34.50
14733;DHT22;7457;50.960;6.830;2023-06-14T10:54:31;31.10;33.20
14733;DHT22;7457;50.960;6.830;2023-06-14T10:56:58;30.90;34.40
14733;DHT22;7457;50.960;6.830;2023-06-14T10:59:24;30.90;34.70
14733;DHT22;7457;50.960;6.830;2023-06-14T11:04:47;31.10;34.70
14733;DHT22;7457;50.960;6.830;2023-06-14T11:10:20;31.10;35.00
14733;DHT22;7457;50.960;6.830;2023-06-14T11:12:50;31.00;35.40
14733;DHT22;7457;50.960;6.830;2023-06-14T11:15:18;31.10;35.60
14733;DHT22;7457;50.960;6.830;2023-06-14T11:17:51;31.20;35.30
14733;DHT22;7457;50.960;6.830;2023-06-14T11:20:19;31.10;35.30
14733;DHT22;7457;50.960;6.830;2023-06-14T11:22:45;31.00;35.40
14733;DHT22;7457;50.960;6.830;2023-06-14T11:25:14;31.00;35.70
14733;DHT22;7457;50.960;6.830;2023-06-14T11:27:43;31.00;35.50
14733;DHT22;7457;50.960;6.830;2023-06-14T11:30:10;31.10;36.00
14733;DHT22;7457;50.960;6.830;2023-06-14T11:32:39;31.30;35.70
14733;DHT22;7457;50.960;6.830;2023-06-14T11:35:05;31.30;34.10
14733;DHT22;7457;50.960;6.830;2023-06-14T11:37:31;31.30;35.40
14733;DHT22;7457;50.960;6.830;2023-06-14T11:40:03;31.20;35.30
14733;DHT22;7457;50.960;6.830;2023-06-14T11:42:40;31.10;34.20
14733;DHT22;7457;50.960;6.830;2023-06-14T11:45:10;31.00;33.50
14733;DHT22;7457;50.960;6.830;2023-06-14T11:47:38;30.80;33.30
14733;DHT22;7457;50.960;6.830;2023-06-14T11:50:05;30.50;33.40
14733;DHT22;7457;50.960;6.830;2023-06-14T11:52:32;30.30;33.70
14733;DHT22;7457;50.960;6.830;2023-06-14T11:54:58;30.20;34.00
14733;DHT22;7457;50.960;6.830;2023-06-14T11:57:24;30.20;34.40
14733;DHT22;7457;50.960;6.830;2023-06-14T11:59:50;30.40;34.30
14733;DHT22;7457;50.960;6.830;2023-06-14T12:02:17;30.50;34.00
14733;DHT22;7457;50.960;6.830;2023-06-14T12:04:51;30.20;34.10
14733;DHT22;7457;50.960;6.830;2023-06-14T12:07:18;30.10;34.20
14733;DHT22;7457;50.960;6.830;2023-06-14T12:12:23;30.30;34.50
14733;DHT22;7457;50.960;6.830;2023-06-14T12:14:51;30.30;34.30
14733;DHT22;7457;50.960;6.830;2023-06-14T12:17:17;30.20;34.60
14733;DHT22;7457;50.960;6.830;2023-06-14T12:19:44;30.20;35.00
14733;DHT22;7457;50.960;6.830;2023-06-14T12:22:11;30.30;35.00
14733;DHT22;7457;50.960;6.830;2023-06-14T12:24:37;30.30;34.70
14733;DHT22;7457;50.960;6.830;2023-06-14T12:27:04;30.30;34.80
14733;DHT22;7457;50.960;6.830;2023-06-14T12:29:32;30.40;34.30
14733;DHT22;7457;50.960;6.830;2023-06-14T12:31:58;30.30;34.10
14733;DHT22;7457;50.960;6.830;2023-06-14T12:34:24;30.00;34.30
14733;DHT22;7457;50.960;6.830;2023-06-14T12:36:50;29.70;32.50
14733;DHT22;7457;50.960;6.830;2023-06-14T12:39:16;29.10;32.80
14733;DHT22;7457;50.960;6.830;2023-06-14T12:41:42;28.40;33.70
14733;DHT22;7457;50.960;6.830;2023-06-14T12:44:08;27.80;35.20
14733;DHT22;7457;50.960;6.830;2023-06-14T12:46:34;27.40;34.30
14733;DHT22;7457;50.960;6.830;2023-06-14T12:49:05;27.10;36.10
14733;DHT22;7457;50.960;6.830;2023-06-14T12:51:30;27.00;34.60
14733;DHT22;7457;50.960;6.830;2023-06-14T12:53:56;27.10;36.50
14733;DHT22;7457;50.960;6.830;2023-06-14T12:56:22;27.20;36.30
14733;DHT22;7457;50.960;6.830;2023-06-14T12:58:47;27.40;36.70
14733;DHT22;7457;50.960;6.830;2023-06-14T13:01:13;27.50;34.10
14733;DHT22;7457;50.960;6.830;2023-06-14T13:03:39;27.30;34.60
14733;DHT22;7457;50.960;6.830;2023-06-14T13:06:04;27.30;35.20
14733;DHT22;7457;50.960;6.830;2023-06-14T13:08:30;27.20;34.60
14733;DHT22;7457;50.960;6.830;2023-06-14T13:10:56;27.00;33.80
14733;DHT22;7457;50.960;6.830;2023-06-14T13:13:23;26.60;34.00
14733;DHT22;7457;50.960;6.830;2023-06-14T13:15:48;26.30;34.30
14733;DHT22;7457;50.960;6.830;2023-06-14T13:18:15;26.00;34.70
14733;DHT22;7457;50.960;6.830;2023-06-14T13:20:41;25.90;36.60
14733;DHT22;7457;50.960;6.830;2023-06-14T13:23:07;26.10;37.00
14733;DHT22;7457;50.960;6.830;2023-06-14T13:25:34;26.50;36.50
14733;DHT22;7457;50.960;6.830;2023-06-14T13:28:00;26.70;35.40
14733;DHT22;7457;50.960;6.830;2023-06-14T13:30:25;26.80;35.40
14733;DHT22;7457;50.960;6.830;2023-06-14T13:32:51;26.70;35.60
14733;DHT22;7457;50.960;6.830;2023-06-14T13:35:20;26.70;36.60
14733;DHT22;7457;50.960;6.830;2023-06-14T13:37:46;26.70;37.40
14733;DHT22;7457;50.960;6.830;2023-06-14T13:40:12;26.70;35.60
14733;DHT22;7457;50.960;6.830;2023-06-14T13:42:37;26.50;35.60
14733;DHT22;7457;50.960;6.830;2023-06-14T13:45:04;26.30;36.30
14733;DHT22;7457;50.960;6.830;2023-06-14T13:47:29;26.20;38.20
14733;DHT22;7457;50.960;6.830;2023-06-14T13:49:56;26.20;37.70
14733;DHT22;7457;50.960;6.830;2023-06-14T13:52:22;26.30;37.60
14733;DHT22;7457;50.960;6.830;2023-06-14T13:54:48;26.40;37.50
14733;DHT22;7457;50.960;6.830;2023-06-14T13:57:13;26.40;35.60
14733;DHT22;7457;50.960;6.830;2023-06-14T13:59:40;26.30;35.80
14733;DHT22;7457;50.960;6.830;2023-06-14T14:02:07;26.10;37.30
14733;DHT22;7457;50.960;6.830;2023-06-14T14:04:34;26.00;37.60
14733;DHT22;7457;50.960;6.830;2023-06-14T14:07:05;26.10;37.80
14733;DHT22;7457;50.960;6.830;2023-06-14T14:09:32;26.20;37.90
14733;DHT22;7457;50.960;6.830;2023-06-14T14:12:01;26.40;37.70
14733;DHT22;7457;50.960;6.830;2023-06-14T14:14:28;26.40;36.10
14733;DHT22;7457;50.960;6.830;2023-06-14T14:16:53;26.40;36.40
14733;DHT22;7457;50.960;6.830;2023-06-14T14:19:23;26.20;36.00
14733;DHT22;7457;50.960;6.830;2023-06-14T14:21:49;26.00;36.40
14733;DHT22;7457;50.960;6.830;2023-06-14T14:24:15;25.80;36.50
14733;DHT22;7457;50.960;6.830;2023-06-14T14:26:41;25.60;36.20
14733;DHT22;7457;50.960;6.830;2023-06-14T14:29:07;25.40;37.90
14733;DHT22;7457;50.960;6.830;2023-06-14T14:31:33;25.40;38.10
14733;DHT22;7457;50.960;6.830;2023-06-14T14:33:59;25.50;38.30
14733;DHT22;7457;50.960;6.830;2023-06-14T14:36:25;25.70;38.30
14733;DHT22;7457;50.960;6.830;2023-06-14T14:38:50;26.00;37.30
14733;DHT22;7457;50.960;6.830;2023-06-14T14:41:19;26.10;36.30
14733;DHT22;7457;50.960;6.830;2023-06-14T14:43:45;26.10;37.20
14733;DHT22;7457;50.960;6.830;2023-06-14T14:46:11;26.00;35.60
14733;DHT22;7457;50.960;6.830;2023-06-14T14:48:36;25.90;35.80
14733;DHT22;7457;50.960;6.830;2023-06-14T14:51:02;25.70;36.30
14733;DHT22;7457;50.960;6.830;2023-06-14T14:53:28;25.70;37.70
14733;DHT22;7457;50.960;6.830;2023-06-14T14:55:54;25.70;37.60
14733;DHT22;7457;50.960;6.830;2023-06-14T14:58:20;25.90;37.60
14733;DHT22;7457;50.960;6.830;2023-06-14T15:00:46;25.90;36.30
14733;DHT22;7457;50.960;6.830;2023-06-14T15:03:12;25.90;37.40
14733;DHT22;7457;50.960;6.830;2023-06-14T15:05:38;25.90;37.10
14733;DHT22;7457;50.960;6.830;2023-06-14T15:08:04;26.00;36.70
14733;DHT22;7457;50.960;6.830;2023-06-14T15:10:35;26.00;36.90
14733;DHT22;7457;50.960;6.830;2023-06-14T15:13:01;26.00;36.70
14733;DHT22;7457;50.960;6.830;2023-06-14T15:15:27;25.90;36.50
14733;DHT22;7457;50.960;6.830;2023-06-14T15:17:52;26.00;36.30
14733;DHT22;7457;50.960;6.830;2023-06-14T15:20:18;25.90;36.10
14733;DHT22;7457;50.960;6.830;2023-06-14T15:22:44;25.90;36.10
14733;DHT22;7457;50.960;6.830;2023-06-14T15:25:09;25.90;36.10
14733;DHT22;7457;50.960;6.830;2023-06-14T15:27:36;25.90;36.30
14733;DHT22;7457;50.960;6.830;2023-06-14T15:30:02;26.00;36.50
14733;DHT22;7457;50.960;6.830;2023-06-14T15:32:28;26.10;36.40
14733;DHT22;7457;50.960;6.830;2023-06-14T15:34:54;26.20;35.00
14733;DHT22;7457;50.960;6.830;2023-06-14T15:37:19;26.00;35.00
14733;DHT22;7457;50.960;6.830;2023-06-14T15:39:45;25.80;35.20
14733;DHT22;7457;50.960;6.830;2023-06-14T15:42:11;25.60;36.10
14733;DHT22;7457;50.960;6.830;2023-06-14T15:44:37;25.40;36.00
14733;DHT22;7457;50.960;6.830;2023-06-14T15:47:03;25.40;36.90
14733;DHT22;7457;50.960;6.830;2023-06-14T15:49:28;25.30;35.60
14733;DHT22;7457;50.960;6.830;2023-06-14T15:51:55;25.20;36.10
14733;DHT22;7457;50.960;6.830;2023-06-14T15:54:20;25.20;37.20
14733;DHT22;7457;50.960;6.830;2023-06-14T15:56:46;25.30;37.00
14733;DHT22;7457;50.960;6.830;2023-06-14T15:59:12;25.30;37.10
14733;DHT22;7457;50.960;6.830;2023-06-14T16:01:37;25.40;36.60
14733;DHT22;7457;50.960;6.830;2023-06-14T16:04:03;25.40;36.60
14733;DHT22;7457;50.960;6.830;2023-06-14T16:06:29;25.40;35.50
14733;DHT22;7457;50.960;6.830;2023-06-14T16:08:55;25.40;36.00
14733;DHT22;7457;50.960;6.830;2023-06-14T16:11:21;25.30;36.10